createdAt,value
2016-05-02T00:00:53.774Z,4.24
2016-05-02T00:01:53.824Z,4.24
2016-05-02T00:02:55.046Z,4.25
2016-05-02T00:03:53.830Z,4.27
2016-05-02T00:05:07.019Z,4.25
2016-05-02T00:06:06.429Z,4.09
2016-05-02T00:06:53.885Z,4.09
2016-05-02T00:07:53.871Z,4.14
2016-05-02T00:09:19.424Z,4.28
2016-05-02T00:10:03.377Z,4.1
2016-05-02T00:11:03.223Z,4.06
2016-05-02T00:12:03.413Z,4.12
2016-05-02T00:13:28.950Z,4.18
2016-05-02T00:14:07.137Z,4.22
2016-05-02T00:15:38.456Z,4.1
2016-05-02T00:16:07.159Z,4.21
2016-05-02T00:17:07.177Z,4.18
2016-05-02T00:18:07.414Z,4.13
2016-05-02T00:19:07.214Z,4.13
2016-05-02T00:20:13.544Z,4.1
2016-05-02T00:21:07.109Z,4.09
2016-05-02T00:22:26.381Z,4.2
2016-05-02T00:23:07.272Z,4.21
2016-05-02T00:24:32.808Z,4.22
2016-05-02T00:25:07.292Z,4.25
2016-05-02T00:26:07.326Z,4.25
2016-05-02T00:27:07.547Z,4.28
2016-05-02T00:28:07.362Z,4.34
2016-05-02T00:29:07.193Z,4.28
2016-05-02T00:30:07.384Z,4.32
2016-05-02T00:31:07.402Z,4.31
2016-05-02T00:32:13.514Z,4.27
2016-05-02T00:33:07.563Z,4.25
2016-05-02T00:34:07.285Z,4.25
2016-05-02T00:35:07.678Z,4.13
2016-05-02T00:36:13.587Z,4.21
2016-05-02T00:37:07.340Z,4.25
2016-05-02T00:38:26.689Z,4.21
2016-05-02T00:39:07.517Z,4.31
2016-05-02T00:40:07.520Z,4.31
2016-05-02T00:41:07.428Z,4.36
2016-05-02T00:42:07.557Z,4.34
2016-05-02T00:43:07.575Z,4.31
2016-05-02T00:44:07.437Z,4.31
2016-05-02T00:45:07.595Z,4.28
2016-05-02T00:46:13.879Z,4.32
2016-05-02T00:47:07.617Z,4.31
2016-05-02T00:48:07.650Z,4.25
2016-05-02T00:49:07.653Z,4.28
2016-05-02T00:50:07.515Z,4.24
2016-05-02T00:51:13.784Z,4.31
2016-05-02T00:52:13.974Z,4.3
2016-05-02T00:53:26.917Z,4.24
2016-05-02T00:54:20.480Z,4.28
2016-05-02T00:55:33.438Z,4.3
2016-05-02T00:56:07.594Z,4.22
2016-05-02T00:57:07.769Z,4.2
2016-05-02T00:58:13.896Z,4.18
2016-05-02T00:59:09.227Z,4.2
2016-05-02T01:00:20.386Z,4.09
2016-05-02T01:01:07.654Z,4.27
2016-05-02T01:02:07.844Z,4.09
2016-05-02T01:03:07.856Z,4.14
2016-05-02T01:04:07.935Z,4.09
2016-05-02T01:05:20.747Z,4.07
2016-05-02T01:06:08.263Z,4.1
2016-05-02T01:07:27.334Z,4.07
2016-05-02T01:08:08.006Z,4.07
2016-05-02T01:09:33.872Z,4.04
2016-05-02T01:10:27.438Z,4.04
2016-05-02T01:11:11.391Z,4.06
2016-05-02T01:12:30.584Z,4.1
2016-05-02T01:13:11.459Z,4.06
2016-05-02T01:14:12.092Z,4.2
2016-05-02T01:15:11.318Z,4.1
2016-05-02T01:16:14.546Z,4.24
2016-05-02T01:17:11.539Z,4.3
2016-05-02T01:18:24.145Z,4.22
2016-05-02T01:19:11.567Z,4.3
2016-05-02T01:20:11.571Z,4.18
2016-05-02T01:21:18.482Z,4.2
2016-05-02T01:22:12.205Z,4.24
2016-05-02T01:23:11.694Z,4.21
2016-05-02T01:24:11.635Z,4.28
2016-05-02T01:25:11.655Z,4.07
2016-05-02T01:26:18.143Z,4.13
2016-05-02T01:27:24.415Z,4.13
2016-05-02T01:28:11.571Z,4.21
2016-05-02T01:29:11.761Z,4.13
2016-05-02T01:30:11.421Z,4.22
2016-05-02T01:31:11.767Z,4.14
2016-05-02T01:32:18.037Z,4.18
2016-05-02T01:33:11.758Z,4.16
2016-05-02T01:34:11.792Z,4.12
2016-05-02T01:35:11.811Z,4.12
2016-05-02T01:36:18.047Z,4
2016-05-02T01:37:11.519Z,4.06
2016-05-02T01:38:24.572Z,4
2016-05-02T01:39:11.837Z,3.89
2016-05-02T01:40:31.077Z,4.02
2016-05-02T01:41:15.014Z,4.09
2016-05-02T01:42:14.938Z,3.96
2016-05-02T01:43:15.035Z,3.99
2016-05-02T01:44:15.069Z,3.94
2016-05-02T01:45:21.369Z,4
2016-05-02T01:46:15.090Z,4.04
2016-05-02T01:47:27.861Z,3.96
2016-05-02T01:48:21.408Z,3.92
2016-05-02T01:49:14.973Z,3.92
2016-05-02T01:50:15.179Z,3.84
2016-05-02T01:51:27.763Z,3.78
2016-05-02T01:52:15.247Z,3.82
2016-05-02T01:53:34.455Z,3.73
2016-05-02T01:54:15.205Z,3.77
2016-05-02T01:55:15.254Z,3.77
2016-05-02T01:56:15.273Z,3.81
2016-05-02T01:57:15.260Z,3.73
2016-05-02T01:58:15.294Z,3.85
2016-05-02T01:59:15.281Z,3.82
2016-05-02T02:00:28.084Z,3.82
2016-05-02T02:01:15.302Z,3.77
2016-05-02T02:02:15.351Z,3.74
2016-05-02T02:03:15.354Z,3.78
2016-05-02T02:04:15.389Z,3.74
2016-05-02T02:05:27.940Z,3.66
2016-05-02T02:06:15.909Z,3.63
2016-05-02T02:07:15.428Z,3.59
2016-05-02T02:08:28.089Z,3.64
2016-05-02T02:09:15.402Z,3.59
2016-05-02T02:10:15.311Z,3.45
2016-05-02T02:11:28.175Z,3.43
2016-05-02T02:12:28.053Z,3.43
2016-05-02T02:13:28.197Z,3.24
2016-05-02T02:14:15.509Z,3.24
2016-05-02T02:15:15.511Z,3.22
2016-05-02T02:16:15.514Z,3.26
2016-05-02T02:17:15.563Z,3.26
2016-05-02T02:18:15.535Z,3.13
2016-05-02T02:19:15.554Z,3.19
2016-05-02T02:20:15.572Z,3.18
2016-05-02T02:21:15.684Z,3.26
2016-05-02T02:22:15.608Z,3.18
2016-05-02T02:23:28.192Z,3.15
2016-05-02T02:24:28.430Z,3.18
2016-05-02T02:25:34.890Z,3.12
2016-05-02T02:26:15.499Z,3.22
2016-05-02T02:27:47.057Z,3.09
2016-05-02T02:28:16.120Z,3.12
2016-05-02T02:29:15.701Z,3.08
2016-05-02T02:30:28.471Z,3.22
2016-05-02T02:31:16.378Z,3.24
2016-05-02T02:32:15.771Z,3.13
2016-05-02T02:33:17.243Z,3.12
2016-05-02T02:34:28.607Z,3.03
2016-05-02T02:35:17.232Z,3.01
2016-05-02T02:36:16.062Z,3.08
2016-05-02T02:37:17.206Z,3.05
2016-05-02T02:38:16.443Z,2.97
2016-05-02T02:39:28.558Z,2.98
2016-05-02T02:40:28.576Z,2.9
2016-05-02T02:41:15.858Z,2.91
2016-05-02T02:42:15.720Z,2.9
2016-05-02T02:43:15.894Z,2.85
2016-05-02T02:44:15.897Z,2.83
2016-05-02T02:45:16.055Z,2.82
2016-05-02T02:46:28.671Z,2.79
2016-05-02T02:47:28.736Z,2.88
2016-05-02T02:48:15.939Z,2.75
2016-05-02T02:49:28.804Z,2.69
2016-05-02T02:50:15.991Z,2.75
2016-05-02T02:51:15.885Z,2.83
2016-05-02T02:52:16.294Z,2.72
2016-05-02T02:53:16.233Z,2.75
2016-05-02T02:54:16.049Z,2.85
2016-05-02T02:55:16.052Z,2.77
2016-05-02T02:56:28.635Z,2.87
2016-05-02T02:57:16.088Z,2.8
2016-05-02T02:58:16.075Z,2.72
2016-05-02T02:59:15.953Z,2.77
2016-05-02T03:00:16.128Z,2.72
2016-05-02T03:01:28.898Z,2.79
2016-05-02T03:02:16.164Z,2.73
2016-05-02T03:03:16.026Z,2.72
2016-05-02T03:04:16.342Z,2.72
2016-05-02T03:05:16.188Z,2.65
2016-05-02T03:06:16.176Z,2.73
2016-05-02T03:07:16.209Z,2.73
2016-05-02T03:08:16.337Z,2.68
2016-05-02T03:09:16.231Z,2.64
2016-05-02T03:10:16.342Z,2.62
2016-05-02T03:11:16.126Z,2.65
2016-05-02T03:12:16.207Z,2.65
2016-05-02T03:13:16.304Z,2.73
2016-05-02T03:14:16.322Z,2.61
2016-05-02T03:15:16.324Z,2.59
2016-05-02T03:16:16.170Z,2.59
2016-05-02T03:17:16.361Z,2.59
2016-05-02T03:18:16.208Z,2.61
2016-05-02T03:19:16.647Z,2.47
2016-05-02T03:20:16.416Z,2.54
2016-05-02T03:21:16.605Z,2.52
2016-05-02T03:22:16.437Z,2.5
2016-05-02T03:23:16.439Z,2.55
2016-05-02T03:24:16.442Z,2.59
2016-05-02T03:25:16.476Z,2.57
2016-05-02T03:26:16.494Z,2.59
2016-05-02T03:27:16.497Z,2.52
2016-05-02T03:28:16.343Z,2.52
2016-05-02T03:29:16.518Z,2.52
2016-05-02T03:30:16.412Z,2.46
2016-05-02T03:31:16.555Z,2.41
2016-05-02T03:32:16.401Z,2.51
2016-05-02T03:33:15.701Z,2.43
2016-05-02T03:34:16.593Z,2.43
2016-05-02T03:35:16.456Z,2.51
2016-05-02T03:36:17.162Z,2.44
2016-05-02T03:37:16.618Z,2.46
2016-05-02T03:38:16.511Z,2.5
2016-05-02T03:39:16.498Z,2.52
2016-05-02T03:40:16.532Z,2.46
2016-05-02T03:41:16.675Z,2.57
2016-05-02T03:42:16.772Z,2.62
2016-05-02T03:43:16.524Z,2.69
2016-05-02T03:44:16.730Z,2.76
2016-05-02T03:45:16.733Z,2.75
2016-05-02T03:46:16.751Z,2.82
2016-05-02T03:47:16.833Z,2.65
2016-05-02T03:48:16.772Z,2.85
2016-05-02T03:49:16.619Z,2.88
2016-05-02T03:50:16.808Z,2.68
2016-05-02T03:51:17.608Z,2.76
2016-05-02T03:52:16.830Z,2.69
2016-05-02T03:53:16.724Z,2.72
2016-05-02T03:54:16.851Z,2.85
2016-05-02T03:55:16.854Z,2.76
2016-05-02T03:56:16.872Z,2.76
2016-05-02T03:57:16.750Z,2.82
2016-05-02T03:58:16.909Z,2.76
2016-05-02T03:59:16.911Z,2.73
2016-05-02T04:00:16.946Z,2.87
2016-05-02T04:01:16.932Z,2.79
2016-05-02T04:02:16.810Z,2.91
2016-05-02T04:03:16.969Z,2.85
2016-05-02T04:04:17.097Z,2.87
2016-05-02T04:05:16.834Z,2.97
2016-05-02T04:06:17.430Z,2.94
2016-05-02T04:07:17.012Z,2.98
2016-05-02T04:08:17.029Z,2.97
2016-05-02T04:09:17.048Z,2.98
2016-05-02T04:10:17.081Z,3
2016-05-02T04:11:16.928Z,3.06
2016-05-02T04:12:17.087Z,3.15
2016-05-02T04:13:17.121Z,3.13
2016-05-02T04:14:17.108Z,3.21
2016-05-02T04:15:17.126Z,3.19
2016-05-02T04:16:17.145Z,3.19
2016-05-02T04:17:17.178Z,3.29
2016-05-02T04:18:17.197Z,3.21
2016-05-02T04:19:17.278Z,3.24
2016-05-02T04:20:17.202Z,3.29
2016-05-02T04:21:18.002Z,3.26
2016-05-02T04:22:17.239Z,3.37
2016-05-02T04:23:17.069Z,3.43
2016-05-02T04:24:17.103Z,3.48
2016-05-02T04:25:17.294Z,3.5
2016-05-02T04:26:17.296Z,3.53
2016-05-02T04:27:17.315Z,3.58
2016-05-02T04:28:23.739Z,3.58
2016-05-02T04:29:17.195Z,3.77
2016-05-02T04:30:17.354Z,3.81
2016-05-02T04:31:17.388Z,3.74
2016-05-02T04:32:17.374Z,3.88
2016-05-02T04:33:17.393Z,3.91
2016-05-02T04:34:17.396Z,3.95
2016-05-02T04:35:17.415Z,3.99
2016-05-02T04:36:17.526Z,4
2016-05-02T04:37:17.420Z,4.02
2016-05-02T04:38:17.470Z,4.09
2016-05-02T04:39:17.316Z,4.18
2016-05-02T04:40:17.490Z,4.22
2016-05-02T04:41:17.492Z,4.2
2016-05-02T04:42:17.417Z,4.43
2016-05-02T04:43:17.515Z,4.39
2016-05-02T04:44:17.439Z,4.43
2016-05-02T04:45:17.551Z,4.4
2016-05-02T04:46:17.553Z,4.52
2016-05-02T04:47:17.494Z,4.67
2016-05-02T04:48:17.590Z,4.67
2016-05-02T04:49:30.392Z,4.71
2016-05-02T04:50:17.455Z,4.86
2016-05-02T04:51:17.739Z,4.92
2016-05-02T04:52:17.632Z,4.94
2016-05-02T04:53:17.510Z,4.97
2016-05-02T04:54:17.669Z,5.02
2016-05-02T04:55:17.686Z,5
2016-05-02T04:56:17.705Z,5.07
2016-05-02T04:57:17.724Z,5.15
2016-05-02T04:58:24.024Z,5.15
2016-05-02T04:59:17.760Z,5.28
2016-05-02T05:00:17.763Z,5.26
2016-05-02T05:01:17.641Z,5.43
2016-05-02T05:02:17.799Z,5.52
2016-05-02T05:03:17.802Z,5.49
2016-05-02T05:04:17.993Z,5.49
2016-05-02T05:05:17.682Z,5.62
2016-05-02T05:06:17.857Z,5.61
2016-05-02T05:07:17.876Z,5.76
2016-05-02T05:08:17.941Z,5.83
2016-05-02T05:09:17.725Z,5.88
2016-05-02T05:10:17.915Z,5.99
2016-05-02T05:11:17.934Z,6.16
2016-05-02T05:12:17.779Z,6.15
2016-05-02T05:13:17.954Z,6.29
2016-05-02T05:14:17.801Z,6.41
2016-05-02T05:15:18.054Z,6.74
2016-05-02T05:16:17.978Z,7.32
2016-05-02T05:17:18.121Z,8.39
2016-05-02T05:18:18.015Z,9.4
2016-05-02T05:19:18.048Z,10.28
2016-05-02T05:20:17.895Z,11.25
2016-05-02T05:21:17.944Z,12.1
2016-05-02T05:22:18.088Z,12.84
2016-05-02T05:23:18.137Z,13.43
2016-05-02T05:24:18.125Z,14
2016-05-02T05:25:18.158Z,14.48
2016-05-02T05:26:18.177Z,14.92
2016-05-02T05:27:18.039Z,15.45
2016-05-02T05:28:18.213Z,15.8
2016-05-02T05:29:18.044Z,16.17
2016-05-02T05:30:18.297Z,16.51
2016-05-02T05:31:18.847Z,16.95
2016-05-02T05:32:18.318Z,17.23
2016-05-02T05:33:18.274Z,17.6
2016-05-02T05:34:18.338Z,17.98
2016-05-02T05:35:18.341Z,18.26
2016-05-02T05:36:18.204Z,18.58
2016-05-02T05:37:18.362Z,18.89
2016-05-02T05:38:18.396Z,19.09
2016-05-02T05:39:18.430Z,19.34
2016-05-02T05:40:18.417Z,19.41
2016-05-02T05:41:18.483Z,19.67
2016-05-02T05:42:18.485Z,20
2016-05-02T05:43:18.503Z,20.37
2016-05-02T05:44:18.506Z,20.63
2016-05-02T05:45:31.293Z,20.89
2016-05-02T05:46:18.574Z,21.15
2016-05-02T05:47:18.561Z,21.29
2016-05-02T05:48:18.454Z,21.23
2016-05-02T05:49:18.489Z,21.26
2016-05-02T05:50:18.664Z,21.38
2016-05-02T05:51:18.525Z,21.38
2016-05-02T05:52:18.715Z,21.59
2016-05-02T05:53:18.749Z,21.75
2016-05-02T05:54:18.752Z,21.89
2016-05-02T05:55:18.786Z,21.63
2016-05-02T05:56:18.711Z,21.56
2016-05-02T05:57:18.823Z,21.75
2016-05-02T05:58:18.950Z,22.04
2016-05-02T05:59:18.733Z,22.33
2016-05-02T06:00:18.924Z,22.31
2016-05-02T06:01:19.005Z,22.52
2016-05-02T06:02:18.805Z,22.37
2016-05-02T06:03:18.994Z,22.18
2016-05-02T06:04:19.013Z,22.04
2016-05-02T06:05:18.719Z,22.1
2016-05-02T06:06:19.049Z,22.37
2016-05-02T06:07:19.334Z,22.47
2016-05-02T06:08:19.102Z,22.98
2016-05-02T06:09:18.980Z,23.37
2016-05-02T06:10:19.186Z,23.73
2016-05-02T06:11:19.173Z,24.03
2016-05-02T06:12:19.206Z,24.18
2016-05-02T06:13:19.271Z,24.61
2016-05-02T06:14:19.259Z,25.06
2016-05-02T06:15:19.292Z,25.33
2016-05-02T06:16:19.936Z,25.48
2016-05-02T06:17:19.361Z,25.58
2016-05-02T06:18:19.379Z,25.95
2016-05-02T06:19:19.412Z,26.11
2016-05-02T06:20:19.447Z,25.7
2016-05-02T06:21:19.152Z,25.63
2016-05-02T06:22:19.499Z,25.44
2016-05-02T06:23:19.381Z,25.43
2016-05-02T06:24:19.399Z,25.56
2016-05-02T06:25:19.450Z,25.25
2016-05-02T06:26:19.468Z,24.31
2016-05-02T06:27:19.658Z,24.26
2016-05-02T06:28:19.676Z,24.46
2016-05-02T06:29:19.569Z,24.89
2016-05-02T06:30:19.729Z,24.89
2016-05-02T06:31:19.763Z,25.29
2016-05-02T06:32:19.780Z,25.89
2016-05-02T06:33:19.643Z,26.41
2016-05-02T06:34:19.880Z,26.86
2016-05-02T06:35:23.054Z,27.01
2016-05-02T06:36:21.277Z,27.4
2016-05-02T06:37:19.935Z,27.75
2016-05-02T06:38:20.126Z,27.94
2016-05-02T06:39:19.831Z,28.06
2016-05-02T06:40:20.037Z,28.18
2016-05-02T06:41:20.055Z,28.35
2016-05-02T06:42:20.074Z,28.49
2016-05-02T06:43:20.107Z,28.52
2016-05-02T06:44:19.970Z,28.37
2016-05-02T06:45:21.597Z,28.71
2016-05-02T06:46:20.053Z,28.83
2016-05-02T06:47:20.039Z,28.89
2016-05-02T06:48:20.293Z,29
2016-05-02T06:49:20.326Z,28.9
2016-05-02T06:50:20.173Z,28.37
2016-05-02T06:51:22.223Z,28.28
2016-05-02T06:52:20.241Z,28.4
2016-05-02T06:53:20.415Z,28.13
2016-05-02T06:54:20.449Z,28.06
2016-05-02T06:55:20.342Z,27.76
2016-05-02T06:56:20.533Z,27.79
2016-05-02T06:57:20.551Z,28
2016-05-02T06:58:20.554Z,27.55
2016-05-02T06:59:20.603Z,27.5
2016-05-02T07:00:20.669Z,27.52
2016-05-02T07:01:20.780Z,27.73
2016-05-02T07:02:20.705Z,27.9
2016-05-02T07:03:20.755Z,28.08
2016-05-02T07:04:20.727Z,27.97
2016-05-02T07:05:20.619Z,27.76
2016-05-02T07:06:20.685Z,28.13
2016-05-02T07:07:20.860Z,28.53
2016-05-02T07:08:20.877Z,28.68
2016-05-02T07:09:20.912Z,28.78
2016-05-02T07:10:20.993Z,28.89
2016-05-02T07:11:20.979Z,28.55
2016-05-02T07:12:21.013Z,28.89
2016-05-02T07:13:21.063Z,29.02
2016-05-02T07:14:21.112Z,29.12
2016-05-02T07:15:20.959Z,29.28
2016-05-02T07:16:21.133Z,29.25
2016-05-02T07:17:21.027Z,29.43
2016-05-02T07:18:21.233Z,29.58
2016-05-02T07:19:21.251Z,29.86
2016-05-02T07:20:21.159Z,30.18
2016-05-02T07:21:21.412Z,29.94
2016-05-02T07:22:21.353Z,29.55
2016-05-02T07:23:21.464Z,29.76
2016-05-02T07:24:21.406Z,29.94
2016-05-02T07:25:21.283Z,29.96
2016-05-02T07:26:21.505Z,30.11
2016-05-02T07:27:21.523Z,30.29
2016-05-02T07:28:21.369Z,30.29
2016-05-02T07:29:21.763Z,29.62
2016-05-02T07:30:21.733Z,30.03
2016-05-02T07:31:21.783Z,30.31
2016-05-02T07:32:22.066Z,30.52
2016-05-02T07:33:21.773Z,30.59
2016-05-02T07:34:22.010Z,30.65
2016-05-02T07:35:21.825Z,31.02
2016-05-02T07:36:22.031Z,31.05
2016-05-02T07:37:21.830Z,31
2016-05-02T07:38:22.020Z,30.95
2016-05-02T07:39:21.915Z,30.85
2016-05-02T07:40:22.026Z,30.99
2016-05-02T07:41:21.966Z,30.89
2016-05-02T07:42:22.001Z,30.58
2016-05-02T07:43:22.097Z,30.52
2016-05-02T07:44:22.084Z,30.86
2016-05-02T07:45:25.134Z,30.83
2016-05-02T07:46:22.152Z,30.56
2016-05-02T07:47:22.170Z,29
2016-05-02T07:48:22.204Z,28.8
2016-05-02T07:49:22.253Z,28.97
2016-05-02T07:50:22.287Z,29.25
2016-05-02T07:51:22.181Z,29.52
2016-05-02T07:52:22.356Z,29.64
2016-05-02T07:53:22.373Z,29.39
2016-05-02T07:54:22.423Z,29.22
2016-05-02T07:55:22.425Z,28.75
2016-05-02T07:56:22.475Z,28.45
2016-05-02T07:57:22.353Z,27.95
2016-05-02T07:58:22.575Z,27.44
2016-05-02T07:59:22.577Z,27
2016-05-02T08:00:22.611Z,26.07
2016-05-02T08:01:22.489Z,24.79
2016-05-02T08:02:22.522Z,23.39
2016-05-02T08:03:22.807Z,22.31
2016-05-02T08:04:22.732Z,21.78
2016-05-02T08:05:22.780Z,21.33
2016-05-02T08:06:22.627Z,20.98
2016-05-02T08:07:22.833Z,20.49
2016-05-02T08:08:22.899Z,20.04
2016-05-02T08:09:22.871Z,19.87
2016-05-02T08:10:22.918Z,19.75
2016-05-02T08:11:22.954Z,19.59
2016-05-02T08:12:23.003Z,18.88
2016-05-02T08:13:23.006Z,18.96
2016-05-02T08:14:23.040Z,18.79
2016-05-02T08:15:23.074Z,18.79
2016-05-02T08:16:23.107Z,18.64
2016-05-02T08:17:23.125Z,18.58
2016-05-02T08:18:23.144Z,18.13
2016-05-02T08:19:23.178Z,18.16
2016-05-02T08:20:23.196Z,17.91
2016-05-02T08:21:23.793Z,17.71
2016-05-02T08:22:23.264Z,17.73
2016-05-02T08:23:23.297Z,17.68
2016-05-02T08:24:23.317Z,17.86
2016-05-02T08:25:23.459Z,17.82
2016-05-02T08:26:23.369Z,17.94
2016-05-02T08:27:23.419Z,17.97
2016-05-02T08:28:23.421Z,18
2016-05-02T08:29:23.439Z,17.95
2016-05-02T08:30:23.458Z,17.73
2016-05-02T08:31:23.554Z,17.65
2016-05-02T08:32:23.603Z,17.42
2016-05-02T08:33:23.544Z,17.42
2016-05-02T08:34:23.655Z,17.39
2016-05-02T08:35:23.440Z,17.38
2016-05-02T08:36:23.489Z,17.41
2016-05-02T08:37:23.648Z,17.41
2016-05-02T08:38:23.652Z,17.39
2016-05-02T08:39:23.529Z,17.39
2016-05-02T08:40:23.718Z,17.42
2016-05-02T08:41:23.752Z,17.34
2016-05-02T08:42:23.771Z,17.34
2016-05-02T08:43:23.993Z,17.37
2016-05-02T08:44:23.839Z,17.44
2016-05-02T08:45:23.873Z,17.34
2016-05-02T08:46:23.860Z,17.35
2016-05-02T08:47:23.957Z,17.42
2016-05-02T08:48:23.756Z,17.5
2016-05-02T08:49:23.946Z,17.6
2016-05-02T08:50:23.948Z,17.73
2016-05-02T08:51:24.014Z,17.91
2016-05-02T08:52:24.220Z,17.97
2016-05-02T08:53:24.051Z,17.97
2016-05-02T08:54:24.116Z,17.97
2016-05-02T08:55:24.071Z,18.06
2016-05-02T08:56:24.481Z,18.09
2016-05-02T08:57:24.156Z,18.11
2016-05-02T08:58:24.158Z,18.26
2016-05-02T08:59:24.208Z,18.27
2016-05-02T09:00:24.273Z,18.33
2016-05-02T09:01:24.228Z,18.48
2016-05-02T09:02:24.106Z,18.26
2016-05-02T09:03:24.266Z,18.24
2016-05-02T09:04:24.314Z,18.3
2016-05-02T09:05:24.411Z,18.27
2016-05-02T09:06:24.867Z,18.3
2016-05-02T09:07:24.479Z,18.41
2016-05-02T09:08:24.404Z,18.41
2016-05-02T09:09:24.282Z,18.37
2016-05-02T09:10:24.455Z,18.48
2016-05-02T09:11:24.537Z,18.33
2016-05-02T09:12:24.492Z,18.48
2016-05-02T09:13:24.510Z,18.53
2016-05-02T09:14:24.529Z,18.48
2016-05-02T09:15:24.547Z,18.28
2016-05-02T09:16:24.596Z,18.3
2016-05-02T09:17:24.631Z,18.19
2016-05-02T09:18:24.634Z,18.12
2016-05-02T09:19:24.651Z,18.19
2016-05-02T09:20:24.748Z,18.33
2016-05-02T09:21:24.782Z,18.49
2016-05-02T09:22:24.817Z,18.57
2016-05-02T09:23:24.756Z,18.66
2016-05-02T09:24:24.790Z,18.61
2016-05-02T09:25:24.824Z,18.42
2016-05-02T09:26:24.828Z,18.33
2016-05-02T09:27:25.455Z,18.31
2016-05-02T09:28:37.614Z,18.41
2016-05-02T09:29:30.992Z,18.28
2016-05-02T09:30:44.215Z,18.05
2016-05-02T09:31:24.965Z,18.08
2016-05-02T09:32:24.827Z,18.03
2016-05-02T09:33:25.097Z,18.08
2016-05-02T09:34:37.755Z,18.28
2016-05-02T09:35:37.788Z,18.37
2016-05-02T09:36:50.591Z,18.58
2016-05-02T09:37:25.107Z,18.57
2016-05-02T09:38:50.800Z,18.7
2016-05-02T09:39:25.331Z,18.85
2016-05-02T09:40:24.849Z,18.89
2016-05-02T09:41:25.195Z,18.97
2016-05-02T09:42:25.527Z,18.97
2016-05-02T09:43:37.966Z,18.86
2016-05-02T09:44:25.265Z,18.98
2016-05-02T09:45:24.988Z,18.88
2016-05-02T09:46:25.318Z,18.89
2016-05-02T09:47:25.337Z,18.98
2016-05-02T09:48:25.621Z,19.04
2016-05-02T09:49:25.232Z,18.94
2016-05-02T09:50:25.110Z,19.08
2016-05-02T09:51:26.097Z,19.19
2016-05-02T09:52:38.179Z,19.2
2016-05-02T09:53:25.775Z,19.22
2016-05-02T09:54:51.170Z,19.3
2016-05-02T09:55:25.811Z,19.23
2016-05-02T09:56:25.611Z,19.27
2016-05-02T09:57:25.785Z,19.24
2016-05-02T09:58:25.647Z,19.16
2016-05-02T09:59:25.712Z,19.19
2016-05-02T10:00:25.636Z,19.17
2016-05-02T10:01:25.577Z,19.2
2016-05-02T10:02:25.705Z,19.23
2016-05-02T10:03:25.739Z,19.29
2016-05-02T10:04:27.164Z,19.32
2016-05-02T10:05:38.510Z,19.3
2016-05-02T10:06:25.794Z,19.34
2016-05-02T10:07:45.033Z,19.41
2016-05-02T10:08:25.861Z,19.56
2016-05-02T10:09:51.661Z,19.6
2016-05-02T10:10:35.661Z,19.56
2016-05-02T10:12:01.597Z,19.72
2016-05-02T10:12:45.439Z,19.72
2016-05-02T10:13:45.490Z,19.62
2016-05-02T10:14:45.977Z,19.7
2016-05-02T10:15:45.558Z,19.66
2016-05-02T10:16:45.608Z,19.64
2016-05-02T10:17:45.735Z,19.59
2016-05-02T10:18:45.703Z,19.41
2016-05-02T10:19:45.852Z,19.52
2016-05-02T10:20:51.986Z,19.42
2016-05-02T10:21:58.556Z,19.52
2016-05-02T10:23:04.846Z,19.48
2016-05-02T10:23:45.852Z,19.45
2016-05-02T10:24:45.701Z,19.6
2016-05-02T10:25:45.909Z,19.64
2016-05-02T10:26:45.758Z,19.81
2016-05-02T10:27:47.543Z,19.84
2016-05-02T10:28:52.220Z,19.84
2016-05-02T10:29:46.114Z,19.81
2016-05-02T10:30:58.757Z,19.82
2016-05-02T10:31:46.136Z,19.72
2016-05-02T10:33:05.327Z,19.84
2016-05-02T10:33:46.127Z,19.82
2016-05-02T10:35:11.833Z,19.79
2016-05-02T10:35:58.882Z,19.77
2016-05-02T10:37:17.464Z,19.89
2016-05-02T10:38:05.388Z,19.81
2016-05-02T10:38:46.203Z,19.87
2016-05-02T10:41:01.333Z,19.96
2016-05-02T10:42:01.274Z,19.82
2016-05-02T10:43:01.449Z,19.84
2016-05-02T10:44:07.623Z,19.74
2016-05-02T10:45:07.797Z,19.7
2016-05-02T10:46:14.268Z,19.72
2016-05-02T10:47:14.209Z,19.67
2016-05-02T10:48:01.601Z,19.77
2016-05-02T10:49:01.621Z,19.89
2016-05-02T10:50:01.498Z,19.85
2016-05-02T10:51:01.532Z,19.87
2016-05-02T10:52:01.800Z,19.94
2016-05-02T10:53:01.709Z,20.07
2016-05-02T10:54:01.790Z,20.07
2016-05-02T10:55:14.480Z,20.12
2016-05-02T10:56:01.639Z,20.1
2016-05-02T10:57:27.517Z,19.97
2016-05-02T10:58:01.848Z,19.94
2016-05-02T10:59:01.882Z,19.94
2016-05-02T11:00:01.884Z,19.9
2016-05-02T11:01:01.934Z,19.97
2016-05-02T11:02:01.921Z,19.93
2016-05-02T11:03:08.220Z,20.04
2016-05-02T11:04:08.270Z,20.1
2016-05-02T11:05:14.758Z,20.1
2016-05-02T11:06:03.401Z,20.1
2016-05-02T11:07:14.810Z,20.22
2016-05-02T11:08:02.094Z,20.19
2016-05-02T11:09:21.455Z,20.22
2016-05-02T11:10:18.036Z,20.32
2016-05-02T11:11:31.273Z,20.3
2016-05-02T11:12:05.541Z,20.32
2016-05-02T11:13:05.561Z,20.3
2016-05-02T11:14:05.563Z,20.39
2016-05-02T11:15:05.675Z,20.39
2016-05-02T11:16:18.209Z,20.49
2016-05-02T11:17:11.993Z,20.39
2016-05-02T11:18:31.371Z,20.56
2016-05-02T11:19:05.701Z,20.6
2016-05-02T11:20:37.001Z,20.68
2016-05-02T11:21:12.019Z,20.75
2016-05-02T11:22:05.771Z,20.77
2016-05-02T11:23:18.360Z,20.71
2016-05-02T11:24:06.066Z,20.74
2016-05-02T11:25:24.913Z,20.63
2016-05-02T11:26:05.868Z,20.66
2016-05-02T11:27:25.121Z,20.58
2016-05-02T11:28:24.983Z,20.67
2016-05-02T11:29:34.673Z,20.74
2016-05-02T11:30:09.020Z,20.82
2016-05-02T11:31:09.178Z,20.89
2016-05-02T11:32:09.026Z,20.9
2016-05-02T11:33:10.528Z,20.88
2016-05-02T11:34:09.125Z,20.78
2016-05-02T11:35:09.111Z,20.77
2016-05-02T11:36:10.630Z,20.75
2016-05-02T11:37:09.758Z,20.77
2016-05-02T11:38:09.729Z,20.77
2016-05-02T11:39:09.778Z,20.74
2016-05-02T11:40:09.484Z,20.8
2016-05-02T11:41:09.300Z,20.75
2016-05-02T11:42:09.911Z,20.86
2016-05-02T11:43:09.460Z,20.9
2016-05-02T11:44:09.933Z,20.88
2016-05-02T11:45:22.060Z,20.89
2016-05-02T11:46:10.079Z,20.85
2016-05-02T11:47:09.519Z,20.9
2016-05-02T11:48:09.459Z,20.88
2016-05-02T11:49:16.368Z,20.83
2016-05-02T11:50:09.340Z,20.96
2016-05-02T11:51:30.013Z,21.05
2016-05-02T11:52:09.610Z,21.08
2016-05-02T11:53:09.566Z,21.05
2016-05-02T11:54:19.131Z,20.92
2016-05-02T11:55:19.181Z,20.85
2016-05-02T11:56:25.449Z,20.86
2016-05-02T11:57:19.217Z,20.8
2016-05-02T11:58:38.439Z,20.71
2016-05-02T11:59:19.254Z,20.6
2016-05-02T12:00:44.773Z,20.4
2016-05-02T12:01:19.306Z,20.37
2016-05-02T12:02:19.325Z,20.18
2016-05-02T12:03:19.468Z,20.18
2016-05-02T12:04:19.268Z,20.18
2016-05-02T12:05:32.161Z,20.22
2016-05-02T12:06:25.898Z,20.36
2016-05-02T12:07:38.807Z,20.17
2016-05-02T12:08:32.357Z,20.26
2016-05-02T12:10:16.659Z,20.67
2016-05-02T12:10:55.067Z,20.88
2016-05-02T12:11:29.364Z,20.98
2016-05-02T12:12:55.089Z,21.25
2016-05-02T12:13:29.417Z,21.3
2016-05-02T12:14:58.172Z,21.25
2016-05-02T12:15:29.313Z,21.29
2016-05-02T12:17:00.943Z,21.15
2016-05-02T12:17:29.677Z,21.07
2016-05-02T12:18:29.696Z,21.01
2016-05-02T12:19:29.683Z,20.86
2016-05-02T12:20:30.436Z,20.88
2016-05-02T12:21:30.313Z,20.93
2016-05-02T12:22:29.769Z,20.95
2016-05-02T12:23:48.587Z,21.08
2016-05-02T12:24:29.665Z,21.25
2016-05-02T12:25:29.729Z,21.37
2016-05-02T12:26:29.749Z,21.48
2016-05-02T12:27:29.626Z,21.69
2016-05-02T12:28:30.410Z,21.81
2016-05-02T12:29:42.569Z,21.83
2016-05-02T12:30:29.884Z,21.81
2016-05-02T12:31:29.887Z,21.8
2016-05-02T12:32:30.170Z,21.88
2016-05-02T12:33:29.799Z,21.77
2016-05-02T12:34:29.989Z,21.75
2016-05-02T12:35:42.725Z,21.65
2016-05-02T12:36:30.057Z,21.62
2016-05-02T12:37:49.265Z,21.74
2016-05-02T12:38:30.265Z,21.94
2016-05-02T12:39:30.128Z,21.97
2016-05-02T12:40:30.130Z,22.06
2016-05-02T12:41:30.164Z,22.04
2016-05-02T12:42:30.182Z,22.03
2016-05-02T12:43:30.185Z,21.84
2016-05-02T12:44:30.063Z,21.65
2016-05-02T12:45:30.253Z,21.6
2016-05-02T12:46:30.271Z,21.5
2016-05-02T12:47:42.883Z,21.51
2016-05-02T12:48:30.166Z,21.45
2016-05-02T12:49:30.420Z,21.48
2016-05-02T12:50:30.376Z,21.37
2016-05-02T12:51:30.863Z,21.44
2016-05-02T12:52:30.444Z,21.38
2016-05-02T12:53:30.477Z,21.47
2016-05-02T12:54:30.496Z,21.37
2016-05-02T12:55:30.514Z,21.45
2016-05-02T12:56:30.548Z,21.45
2016-05-02T12:57:30.582Z,21.44
2016-05-02T12:58:30.679Z,21.48
2016-05-02T12:59:30.619Z,21.37
2016-05-02T13:00:30.653Z,21.26
2016-05-02T13:01:30.671Z,21.14
2016-05-02T13:02:30.690Z,21.15
2016-05-02T13:03:30.739Z,21.23
2016-05-02T13:04:30.757Z,21.25
2016-05-02T13:05:30.792Z,21.43
2016-05-02T13:06:30.670Z,21.48
2016-05-02T13:07:30.843Z,21.51
2016-05-02T13:08:43.581Z,21.54
2016-05-02T13:09:31.098Z,21.43